sensor_id;sensor_type;location;lat;lon;timestamp;P1;durP1;ratioP1;P2;durP2;ratioP2
58470;SDS011;44258;51.288;12.068;2023-10-19T00:00:30;14.77;;;6.15;;
58470;SDS011;44258;51.288;12.068;2023-10-19T00:02:58;9.32;;;4.50;;
58470;SDS011;44258;51.288;12.068;2023-10-19T00:05:27;14.85;;;6.85;;
58470;SDS011;44258;51.288;12.068;2023-10-19T00:07:55;12.48;;;4.95;;
58470;SDS011;44258;51.288;12.068;2023-10-19T00:10:22;9.70;;;5.57;;
58470;SDS011;44258;51.288;12.068;2023-10-19T00:12:50;14.77;;;6.63;;
58470;SDS011;44258;51.288;12.068;2023-10-19T00:15:26;13.95;;;5.78;;
58470;SDS011;44258;51.288;12.068;2023-10-19T00:17:57;13.93;;;5.85;;
58470;SDS011;44258;51.288;12.068;2023-10-19T00:20:24;17.15;;;6.65;;
58470;SDS011;44258;51.288;12.068;2023-10-19T00:23:16;18.92;;;8.07;;
58470;SDS011;44258;51.288;12.068;2023-10-19T00:25:50;14.60;;;6.20;;
58470;SDS011;44258;51.288;12.068;2023-10-19T00:28:17;13.38;;;5.63;;
58470;SDS011;44258;51.288;12.068;2023-10-19T00:30:49;14.50;;;7.13;;
58470;SDS011;44258;51.288;12.068;2023-10-19T00:33:18;13.02;;;5.93;;
58470;SDS011;44258;51.288;12.068;2023-10-19T00:35:47;16.67;;;6.57;;
58470;SDS011;44258;51.288;12.068;2023-10-19T00:38:23;18.10;;;6.30;;
58470;SDS011;44258;51.288;12.068;2023-10-19T00:41:07;11.48;;;5.70;;
58470;SDS011;44258;51.288;12.068;2023-10-19T00:43:39;15.88;;;6.15;;
58470;SDS011;44258;51.288;12.068;2023-10-19T00:46:11;20.50;;;8.10;;
58470;SDS011;44258;51.288;12.068;2023-10-19T00:48:47;18.27;;;7.32;;
58470;SDS011;44258;51.288;12.068;2023-10-19T00:51:16;17.05;;;7.18;;
58470;SDS011;44258;51.288;12.068;2023-10-19T00:54:04;15.13;;;5.80;;
58470;SDS011;44258;51.288;12.068;2023-10-19T00:56:36;15.13;;;6.80;;
58470;SDS011;44258;51.288;12.068;2023-10-19T00:59:06;14.75;;;6.63;;
58470;SDS011;44258;51.288;12.068;2023-10-19T01:01:41;14.15;;;6.65;;
58470;SDS011;44258;51.288;12.068;2023-10-19T01:04:11;16.25;;;6.88;;
58470;SDS011;44258;51.288;12.068;2023-10-19T01:06:40;16.30;;;7.00;;
58470;SDS011;44258;51.288;12.068;2023-10-19T01:09:09;16.45;;;7.50;;
58470;SDS011;44258;51.288;12.068;2023-10-19T01:11:40;15.80;;;7.53;;
58470;SDS011;44258;51.288;12.068;2023-10-19T01:14:17;15.35;;;7.32;;
58470;SDS011;44258;51.288;12.068;2023-10-19T01:16:46;16.17;;;6.60;;
58470;SDS011;44258;51.288;12.068;2023-10-19T01:19:14;11.70;;;6.03;;
58470;SDS011;44258;51.288;12.068;2023-10-19T01:21:43;14.18;;;6.10;;
58470;SDS011;44258;51.288;12.068;2023-10-19T01:24:18;16.02;;;7.13;;
58470;SDS011;44258;51.288;12.068;2023-10-19T01:26:51;11.13;;;5.43;;
58470;SDS011;44258;51.288;12.068;2023-10-19T01:29:20;14.75;;;5.80;;
58470;SDS011;44258;51.288;12.068;2023-10-19T01:31:51;18.75;;;7.18;;
58470;SDS011;44258;51.288;12.068;2023-10-19T01:34:21;18.27;;;6.88;;
58470;SDS011;44258;51.288;12.068;2023-10-19T01:36:48;17.35;;;7.53;;
58470;SDS011;44258;51.288;12.068;2023-10-19T01:39:15;17.63;;;6.75;;
58470;SDS011;44258;51.288;12.068;2023-10-19T01:41:45;15.70;;;7.00;;
58470;SDS011;44258;51.288;12.068;2023-10-19T01:44:11;16.10;;;7.05;;
58470;SDS011;44258;51.288;12.068;2023-10-19T01:46:41;17.23;;;7.07;;
58470;SDS011;44258;51.288;12.068;2023-10-19T01:49:09;13.70;;;6.47;;
58470;SDS011;44258;51.288;12.068;2023-10-19T01:51:37;14.35;;;6.43;;
58470;SDS011;44258;51.288;12.068;2023-10-19T01:54:04;14.18;;;6.30;;
58470;SDS011;44258;51.288;12.068;2023-10-19T01:56:33;13.35;;;6.93;;
58470;SDS011;44258;51.288;12.068;2023-10-19T01:59:03;14.73;;;6.45;;
58470;SDS011;44258;51.288;12.068;2023-10-19T02:01:32;16.50;;;7.40;;
58470;SDS011;44258;51.288;12.068;2023-10-19T02:03:58;13.98;;;5.80;;
58470;SDS011;44258;51.288;12.068;2023-10-19T02:06:29;17.42;;;7.30;;
58470;SDS011;44258;51.288;12.068;2023-10-19T02:09:02;14.68;;;5.95;;
58470;SDS011;44258;51.288;12.068;2023-10-19T02:11:42;18.85;;;6.93;;
58470;SDS011;44258;51.288;12.068;2023-10-19T02:14:15;14.07;;;6.65;;
58470;SDS011;44258;51.288;12.068;2023-10-19T02:16:48;17.15;;;6.75;;
58470;SDS011;44258;51.288;12.068;2023-10-19T02:19:16;14.38;;;6.43;;
58470;SDS011;44258;51.288;12.068;2023-10-19T02:21:47;16.92;;;7.15;;
58470;SDS011;44258;51.288;12.068;2023-10-19T02:24:13;13.65;;;5.95;;
58470;SDS011;44258;51.288;12.068;2023-10-19T02:26:42;17.73;;;7.93;;
58470;SDS011;44258;51.288;12.068;2023-10-19T02:29:12;18.00;;;7.63;;
58470;SDS011;44258;51.288;12.068;2023-10-19T02:31:42;14.48;;;6.35;;
58470;SDS011;44258;51.288;12.068;2023-10-19T02:34:10;15.27;;;6.65;;
58470;SDS011;44258;51.288;12.068;2023-10-19T02:36:41;16.75;;;7.45;;
58470;SDS011;44258;51.288;12.068;2023-10-19T02:39:08;18.08;;;7.57;;
58470;SDS011;44258;51.288;12.068;2023-10-19T02:41:37;12.93;;;6.18;;
58470;SDS011;44258;51.288;12.068;2023-10-19T02:44:04;17.92;;;8.57;;
58470;SDS011;44258;51.288;12.068;2023-10-19T02:46:39;14.65;;;6.75;;
58470;SDS011;44258;51.288;12.068;2023-10-19T02:49:09;23.25;;;6.68;;
58470;SDS011;44258;51.288;12.068;2023-10-19T02:51:39;17.20;;;7.15;;
58470;SDS011;44258;51.288;12.068;2023-10-19T02:54:05;15.20;;;7.40;;
58470;SDS011;44258;51.288;12.068;2023-10-19T02:56:41;9.98;;;5.60;;
58470;SDS011;44258;51.288;12.068;2023-10-19T02:59:09;16.42;;;6.45;;
58470;SDS011;44258;51.288;12.068;2023-10-19T03:01:36;21.77;;;8.65;;
58470;SDS011;44258;51.288;12.068;2023-10-19T03:06:31;9.32;;;4.82;;
58470;SDS011;44258;51.288;12.068;2023-10-19T03:08:58;15.75;;;6.88;;
58470;SDS011;44258;51.288;12.068;2023-10-19T03:11:38;16.75;;;6.90;;
58470;SDS011;44258;51.288;12.068;2023-10-19T03:14:05;20.33;;;8.10;;
58470;SDS011;44258;51.288;12.068;2023-10-19T03:16:33;13.68;;;5.90;;
58470;SDS011;44258;51.288;12.068;2023-10-19T03:19:02;18.55;;;7.70;;
58470;SDS011;44258;51.288;12.068;2023-10-19T03:21:29;16.17;;;7.15;;
58470;SDS011;44258;51.288;12.068;2023-10-19T03:23:59;14.63;;;7.30;;
58470;SDS011;44258;51.288;12.068;2023-10-19T03:26:37;18.98;;;7.03;;
58470;SDS011;44258;51.288;12.068;2023-10-19T03:29:10;21.73;;;8.77;;
58470;SDS011;44258;51.288;12.068;2023-10-19T03:31:40;15.35;;;7.13;;
58470;SDS011;44258;51.288;12.068;2023-10-19T03:34:10;19.45;;;8.32;;
58470;SDS011;44258;51.288;12.068;2023-10-19T03:36:40;19.58;;;8.25;;
58470;SDS011;44258;51.288;12.068;2023-10-19T03:39:07;19.10;;;6.90;;
58470;SDS011;44258;51.288;12.068;2023-10-19T03:41:38;23.70;;;8.60;;
58470;SDS011;44258;51.288;12.068;2023-10-19T03:44:07;23.52;;;9.48;;
58470;SDS011;44258;51.288;12.068;2023-10-19T03:46:39;23.20;;;8.65;;
58470;SDS011;44258;51.288;12.068;2023-10-19T03:49:18;22.60;;;8.27;;
58470;SDS011;44258;51.288;12.068;2023-10-19T03:51:46;17.98;;;7.97;;
58470;SDS011;44258;51.288;12.068;2023-10-19T03:54:25;14.05;;;6.93;;
58470;SDS011;44258;51.288;12.068;2023-10-19T03:56:52;22.77;;;6.80;;
58470;SDS011;44258;51.288;12.068;2023-10-19T03:59:20;21.25;;;7.82;;
58470;SDS011;44258;51.288;12.068;2023-10-19T04:01:47;17.25;;;9.40;;
58470;SDS011;44258;51.288;12.068;2023-10-19T04:04:14;17.45;;;8.35;;
58470;SDS011;44258;51.288;12.068;2023-10-19T04:06:42;23.98;;;8.50;;
58470;SDS011;44258;51.288;12.068;2023-10-19T04:09:16;17.92;;;7.63;;
58470;SDS011;44258;51.288;12.068;2023-10-19T04:11:45;16.35;;;7.40;;
58470;SDS011;44258;51.288;12.068;2023-10-19T04:14:15;15.70;;;7.63;;
58470;SDS011;44258;51.288;12.068;2023-10-19T04:16:42;17.70;;;7.80;;
58470;SDS011;44258;51.288;12.068;2023-10-19T04:19:09;12.77;;;7.30;;
58470;SDS011;44258;51.288;12.068;2023-10-19T04:21:43;14.57;;;6.47;;
58470;SDS011;44258;51.288;12.068;2023-10-19T04:24:14;17.17;;;6.85;;
58470;SDS011;44258;51.288;12.068;2023-10-19T04:26:43;18.17;;;6.88;;
58470;SDS011;44258;51.288;12.068;2023-10-19T04:29:12;15.18;;;6.72;;
58470;SDS011;44258;51.288;12.068;2023-10-19T04:31:42;15.45;;;6.68;;
58470;SDS011;44258;51.288;12.068;2023-10-19T04:34:16;12.88;;;6.78;;
58470;SDS011;44258;51.288;12.068;2023-10-19T04:36:46;16.67;;;7.22;;
58470;SDS011;44258;51.288;12.068;2023-10-19T04:39:16;9.93;;;5.07;;
58470;SDS011;44258;51.288;12.068;2023-10-19T04:41:45;14.38;;;6.90;;
58470;SDS011;44258;51.288;12.068;2023-10-19T04:44:14;15.73;;;5.88;;
58470;SDS011;44258;51.288;12.068;2023-10-19T04:46:44;12.23;;;5.30;;
58470;SDS011;44258;51.288;12.068;2023-10-19T04:49:13;17.45;;;7.13;;
58470;SDS011;44258;51.288;12.068;2023-10-19T04:51:42;16.77;;;7.40;;
58470;SDS011;44258;51.288;12.068;2023-10-19T04:54:09;19.48;;;6.93;;
58470;SDS011;44258;51.288;12.068;2023-10-19T04:56:41;15.57;;;6.82;;
58470;SDS011;44258;51.288;12.068;2023-10-19T04:59:07;21.30;;;8.70;;
58470;SDS011;44258;51.288;12.068;2023-10-19T05:01:34;17.83;;;7.15;;
58470;SDS011;44258;51.288;12.068;2023-10-19T05:04:00;19.27;;;7.80;;
58470;SDS011;44258;51.288;12.068;2023-10-19T05:06:27;15.32;;;6.90;;
58470;SDS011;44258;51.288;12.068;2023-10-19T05:09:03;16.00;;;6.80;;
58470;SDS011;44258;51.288;12.068;2023-10-19T05:11:31;23.13;;;7.40;;
58470;SDS011;44258;51.288;12.068;2023-10-19T05:14:01;17.73;;;7.93;;
58470;SDS011;44258;51.288;12.068;2023-10-19T05:16:30;18.77;;;8.07;;
58470;SDS011;44258;51.288;12.068;2023-10-19T05:18:57;17.90;;;6.70;;
58470;SDS011;44258;51.288;12.068;2023-10-19T05:21:28;15.95;;;5.75;;
58470;SDS011;44258;51.288;12.068;2023-10-19T05:23:55;15.52;;;6.65;;
58470;SDS011;44258;51.288;12.068;2023-10-19T05:26:22;17.15;;;7.32;;
58470;SDS011;44258;51.288;12.068;2023-10-19T05:28:49;17.33;;;7.38;;
58470;SDS011;44258;51.288;12.068;2023-10-19T05:31:17;15.98;;;7.07;;
58470;SDS011;44258;51.288;12.068;2023-10-19T05:33:44;18.20;;;7.63;;
58470;SDS011;44258;51.288;12.068;2023-10-19T05:36:13;15.82;;;5.82;;
58470;SDS011;44258;51.288;12.068;2023-10-19T05:38:40;18.38;;;7.35;;
58470;SDS011;44258;51.288;12.068;2023-10-19T05:41:08;18.77;;;7.47;;
58470;SDS011;44258;51.288;12.068;2023-10-19T05:43:35;17.30;;;7.97;;
58470;SDS011;44258;51.288;12.068;2023-10-19T05:46:03;21.52;;;7.22;;
58470;SDS011;44258;51.288;12.068;2023-10-19T05:48:32;13.15;;;5.50;;
58470;SDS011;44258;51.288;12.068;2023-10-19T05:50:59;17.27;;;6.85;;
58470;SDS011;44258;51.288;12.068;2023-10-19T05:53:30;13.93;;;5.78;;
58470;SDS011;44258;51.288;12.068;2023-10-19T05:55:59;21.17;;;8.13;;
58470;SDS011;44258;51.288;12.068;2023-10-19T05:58:29;17.75;;;6.97;;
58470;SDS011;44258;51.288;12.068;2023-10-19T06:01:01;20.63;;;7.28;;
58470;SDS011;44258;51.288;12.068;2023-10-19T06:03:28;14.02;;;6.07;;
58470;SDS011;44258;51.288;12.068;2023-10-19T06:05:57;15.50;;;7.00;;
58470;SDS011;44258;51.288;12.068;2023-10-19T06:08:25;14.02;;;5.90;;
58470;SDS011;44258;51.288;12.068;2023-10-19T06:10:54;23.00;;;8.18;;
58470;SDS011;44258;51.288;12.068;2023-10-19T06:13:21;16.65;;;7.93;;
58470;SDS011;44258;51.288;12.068;2023-10-19T06:15:48;18.42;;;7.60;;
58470;SDS011;44258;51.288;12.068;2023-10-19T06:18:16;19.13;;;7.55;;
58470;SDS011;44258;51.288;12.068;2023-10-19T06:20:43;14.95;;;6.80;;
58470;SDS011;44258;51.288;12.068;2023-10-19T06:23:11;16.20;;;6.65;;
58470;SDS011;44258;51.288;12.068;2023-10-19T06:25:38;19.10;;;7.68;;
58470;SDS011;44258;51.288;12.068;2023-10-19T06:28:09;19.50;;;7.50;;
58470;SDS011;44258;51.288;12.068;2023-10-19T06:30:39;18.83;;;7.32;;
58470;SDS011;44258;51.288;12.068;2023-10-19T06:33:09;22.27;;;7.78;;
58470;SDS011;44258;51.288;12.068;2023-10-19T06:35:39;20.30;;;7.90;;
58470;SDS011;44258;51.288;12.068;2023-10-19T06:38:08;13.23;;;6.22;;
58470;SDS011;44258;51.288;12.068;2023-10-19T06:40:41;20.73;;;7.85;;
58470;SDS011;44258;51.288;12.068;2023-10-19T06:43:10;20.30;;;6.45;;
58470;SDS011;44258;51.288;12.068;2023-10-19T06:45:40;15.07;;;6.32;;
58470;SDS011;44258;51.288;12.068;2023-10-19T06:48:10;13.07;;;6.65;;
58470;SDS011;44258;51.288;12.068;2023-10-19T06:50:40;16.13;;;7.07;;
58470;SDS011;44258;51.288;12.068;2023-10-19T06:53:06;15.15;;;7.25;;
58470;SDS011;44258;51.288;12.068;2023-10-19T06:55:34;15.88;;;7.32;;
58470;SDS011;44258;51.288;12.068;2023-10-19T06:58:02;21.48;;;8.80;;
58470;SDS011;44258;51.288;12.068;2023-10-19T07:00:29;20.73;;;8.35;;
58470;SDS011;44258;51.288;12.068;2023-10-19T07:02:57;15.50;;;6.05;;
58470;SDS011;44258;51.288;12.068;2023-10-19T07:05:25;17.48;;;7.40;;
58470;SDS011;44258;51.288;12.068;2023-10-19T07:07:55;13.65;;;6.45;;
58470;SDS011;44258;51.288;12.068;2023-10-19T07:10:24;18.38;;;6.97;;
58470;SDS011;44258;51.288;12.068;2023-10-19T07:12:54;15.07;;;6.60;;
58470;SDS011;44258;51.288;12.068;2023-10-19T07:15:25;15.30;;;5.70;;
58470;SDS011;44258;51.288;12.068;2023-10-19T07:17:52;17.30;;;6.95;;
58470;SDS011;44258;51.288;12.068;2023-10-19T07:20:20;16.67;;;7.60;;
58470;SDS011;44258;51.288;12.068;2023-10-19T07:22:54;19.33;;;7.15;;
58470;SDS011;44258;51.288;12.068;2023-10-19T07:25:21;16.55;;;7.55;;
58470;SDS011;44258;51.288;12.068;2023-10-19T07:27:51;19.42;;;8.88;;
58470;SDS011;44258;51.288;12.068;2023-10-19T07:30:20;17.55;;;7.43;;
58470;SDS011;44258;51.288;12.068;2023-10-19T07:32:52;16.25;;;6.72;;
58470;SDS011;44258;51.288;12.068;2023-10-19T07:35:23;20.23;;;7.15;;
58470;SDS011;44258;51.288;12.068;2023-10-19T07:37:51;20.63;;;7.07;;
58470;SDS011;44258;51.288;12.068;2023-10-19T07:40:23;19.67;;;7.57;;
58470;SDS011;44258;51.288;12.068;2023-10-19T07:42:51;17.40;;;7.55;;
58470;SDS011;44258;51.288;12.068;2023-10-19T07:45:23;17.95;;;7.45;;
58470;SDS011;44258;51.288;12.068;2023-10-19T07:47:51;15.93;;;6.78;;
58470;SDS011;44258;51.288;12.068;2023-10-19T07:50:21;19.33;;;7.57;;
58470;SDS011;44258;51.288;12.068;2023-10-19T07:52:49;18.20;;;7.18;;
58470;SDS011;44258;51.288;12.068;2023-10-19T07:55:20;18.55;;;7.85;;
58470;SDS011;44258;51.288;12.068;2023-10-19T07:57:50;18.70;;;8.27;;
58470;SDS011;44258;51.288;12.068;2023-10-19T08:00:21;18.58;;;7.95;;
58470;SDS011;44258;51.288;12.068;2023-10-19T08:02:52;18.02;;;7.47;;
58470;SDS011;44258;51.288;12.068;2023-10-19T08:05:20;17.92;;;7.60;;
58470;SDS011;44258;51.288;12.068;2023-10-19T08:07:49;19.00;;;8.95;;
58470;SDS011;44258;51.288;12.068;2023-10-19T08:10:17;20.80;;;9.25;;
58470;SDS011;44258;51.288;12.068;2023-10-19T08:12:45;16.38;;;7.70;;
58470;SDS011;44258;51.288;12.068;2023-10-19T08:15:14;22.27;;;8.85;;
58470;SDS011;44258;51.288;12.068;2023-10-19T08:17:44;22.10;;;8.40;;
58470;SDS011;44258;51.288;12.068;2023-10-19T08:20:12;20.92;;;8.25;;
58470;SDS011;44258;51.288;12.068;2023-10-19T08:22:48;20.20;;;8.57;;
58470;SDS011;44258;51.288;12.068;2023-10-19T08:25:15;22.23;;;9.60;;
58470;SDS011;44258;51.288;12.068;2023-10-19T08:27:42;24.10;;;10.38;;
58470;SDS011;44258;51.288;12.068;2023-10-19T08:30:11;26.48;;;12.35;;
58470;SDS011;44258;51.288;12.068;2023-10-19T08:32:39;22.85;;;10.35;;
58470;SDS011;44258;51.288;12.068;2023-10-19T08:35:08;26.80;;;11.63;;
58470;SDS011;44258;51.288;12.068;2023-10-19T08:37:37;21.55;;;9.73;;
58470;SDS011;44258;51.288;12.068;2023-10-19T08:40:04;23.77;;;10.52;;
58470;SDS011;44258;51.288;12.068;2023-10-19T08:42:33;22.70;;;10.43;;
58470;SDS011;44258;51.288;12.068;2023-10-19T08:45:03;23.35;;;10.10;;
58470;SDS011;44258;51.288;12.068;2023-10-19T08:47:34;20.55;;;9.80;;
58470;SDS011;44258;51.288;12.068;2023-10-19T08:50:03;20.75;;;10.05;;
58470;SDS011;44258;51.288;12.068;2023-10-19T08:52:32;17.88;;;8.30;;
58470;SDS011;44258;51.288;12.068;2023-10-19T08:55:01;20.17;;;9.00;;
58470;SDS011;44258;51.288;12.068;2023-10-19T08:57:33;20.05;;;9.70;;
58470;SDS011;44258;51.288;12.068;2023-10-19T09:00:01;20.70;;;8.93;;
58470;SDS011;44258;51.288;12.068;2023-10-19T09:02:32;22.33;;;9.23;;
58470;SDS011;44258;51.288;12.068;2023-10-19T09:04:59;27.23;;;10.40;;
58470;SDS011;44258;51.288;12.068;2023-10-19T09:07:34;21.75;;;10.35;;
58470;SDS011;44258;51.288;12.068;2023-10-19T09:10:01;20.08;;;8.63;;
58470;SDS011;44258;51.288;12.068;2023-10-19T09:12:31;21.30;;;9.82;;
58470;SDS011;44258;51.288;12.068;2023-10-19T09:14:58;23.05;;;9.45;;
58470;SDS011;44258;51.288;12.068;2023-10-19T09:17:29;19.70;;;8.68;;
58470;SDS011;44258;51.288;12.068;2023-10-19T09:19:57;22.98;;;10.20;;
58470;SDS011;44258;51.288;12.068;2023-10-19T09:22:24;20.50;;;8.88;;
58470;SDS011;44258;51.288;12.068;2023-10-19T09:24:53;20.88;;;9.80;;
58470;SDS011;44258;51.288;12.068;2023-10-19T09:27:20;16.42;;;8.60;;
58470;SDS011;44258;51.288;12.068;2023-10-19T09:29:48;22.05;;;9.88;;
58470;SDS011;44258;51.288;12.068;2023-10-19T09:32:17;19.67;;;8.45;;
58470;SDS011;44258;51.288;12.068;2023-10-19T09:34:45;21.10;;;10.13;;
58470;SDS011;44258;51.288;12.068;2023-10-19T09:37:17;22.90;;;10.50;;
58470;SDS011;44258;51.288;12.068;2023-10-19T09:39:47;20.77;;;9.52;;
58470;SDS011;44258;51.288;12.068;2023-10-19T09:42:19;23.17;;;10.18;;
58470;SDS011;44258;51.288;12.068;2023-10-19T09:44:50;25.92;;;11.52;;
58470;SDS011;44258;51.288;12.068;2023-10-19T09:47:24;23.42;;;11.45;;
58470;SDS011;44258;51.288;12.068;2023-10-19T09:49:56;25.30;;;11.73;;
58470;SDS011;44258;51.288;12.068;2023-10-19T09:52:23;19.13;;;9.18;;
58470;SDS011;44258;51.288;12.068;2023-10-19T09:54:54;19.48;;;10.30;;
58470;SDS011;44258;51.288;12.068;2023-10-19T09:57:30;24.58;;;11.32;;
58470;SDS011;44258;51.288;12.068;2023-10-19T10:00:03;20.42;;;9.68;;
58470;SDS011;44258;51.288;12.068;2023-10-19T10:02:37;21.48;;;9.70;;
58470;SDS011;44258;51.288;12.068;2023-10-19T10:05:08;18.63;;;9.10;;
58470;SDS011;44258;51.288;12.068;2023-10-19T10:08:29;21.45;;;10.07;;
58470;SDS011;44258;51.288;12.068;2023-10-19T10:10:57;19.83;;;9.40;;
58470;SDS011;44258;51.288;12.068;2023-10-19T10:13:37;22.75;;;10.73;;
58470;SDS011;44258;51.288;12.068;2023-10-19T10:16:04;18.13;;;9.07;;
58470;SDS011;44258;51.288;12.068;2023-10-19T10:18:33;19.55;;;8.60;;
58470;SDS011;44258;51.288;12.068;2023-10-19T10:21:07;20.17;;;9.20;;
58470;SDS011;44258;51.288;12.068;2023-10-19T10:23:40;19.67;;;10.23;;
58470;SDS011;44258;51.288;12.068;2023-10-19T10:26:09;20.33;;;9.32;;
58470;SDS011;44258;51.288;12.068;2023-10-19T10:28:38;17.55;;;9.05;;
58470;SDS011;44258;51.288;12.068;2023-10-19T10:31:12;19.60;;;9.05;;
58470;SDS011;44258;51.288;12.068;2023-10-19T10:33:41;21.45;;;9.93;;
58470;SDS011;44258;51.288;12.068;2023-10-19T10:36:11;21.73;;;9.77;;
58470;SDS011;44258;51.288;12.068;2023-10-19T10:38:39;18.63;;;9.02;;
58470;SDS011;44258;51.288;12.068;2023-10-19T10:41:06;15.95;;;8.00;;
58470;SDS011;44258;51.288;12.068;2023-10-19T10:44:03;19.42;;;9.20;;
58470;SDS011;44258;51.288;12.068;2023-10-19T10:46:29;22.80;;;9.52;;
58470;SDS011;44258;51.288;12.068;2023-10-19T10:48:57;17.40;;;8.35;;
58470;SDS011;44258;51.288;12.068;2023-10-19T10:51:25;16.90;;;8.32;;
58470;SDS011;44258;51.288;12.068;2023-10-19T10:53:54;20.48;;;9.38;;
58470;SDS011;44258;51.288;12.068;2023-10-19T10:56:22;17.67;;;8.65;;
58470;SDS011;44258;51.288;12.068;2023-10-19T10:58:49;21.00;;;9.68;;
58470;SDS011;44258;51.288;12.068;2023-10-19T11:01:28;17.52;;;7.88;;
58470;SDS011;44258;51.288;12.068;2023-10-19T11:04:07;18.45;;;8.90;;
58470;SDS011;44258;51.288;12.068;2023-10-19T11:06:46;18.63;;;8.25;;
58470;SDS011;44258;51.288;12.068;2023-10-19T11:09:15;26.75;;;11.40;;
58470;SDS011;44258;51.288;12.068;2023-10-19T11:11:44;20.30;;;9.20;;
58470;SDS011;44258;51.288;12.068;2023-10-19T11:14:11;21.65;;;9.63;;
58470;SDS011;44258;51.288;12.068;2023-10-19T11:16:41;16.00;;;7.82;;
58470;SDS011;44258;51.288;12.068;2023-10-19T11:19:10;22.13;;;9.15;;
58470;SDS011;44258;51.288;12.068;2023-10-19T11:21:50;34.30;;;11.93;;
58470;SDS011;44258;51.288;12.068;2023-10-19T11:24:23;18.02;;;7.95;;
58470;SDS011;44258;51.288;12.068;2023-10-19T11:26:51;17.77;;;7.80;;
58470;SDS011;44258;51.288;12.068;2023-10-19T11:29:17;17.77;;;8.43;;
58470;SDS011;44258;51.288;12.068;2023-10-19T11:31:57;17.88;;;8.20;;
58470;SDS011;44258;51.288;12.068;2023-10-19T11:34:25;16.08;;;7.95;;
58470;SDS011;44258;51.288;12.068;2023-10-19T11:36:52;17.15;;;8.27;;
58470;SDS011;44258;51.288;12.068;2023-10-19T11:39:21;19.95;;;8.80;;
58470;SDS011;44258;51.288;12.068;2023-10-19T11:41:49;17.27;;;7.75;;
58470;SDS011;44258;51.288;12.068;2023-10-19T11:44:16;15.30;;;7.18;;
58470;SDS011;44258;51.288;12.068;2023-10-19T11:46:45;12.90;;;6.32;;
58470;SDS011;44258;51.288;12.068;2023-10-19T11:49:17;15.88;;;6.95;;
58470;SDS011;44258;51.288;12.068;2023-10-19T11:51:45;12.88;;;6.30;;
58470;SDS011;44258;51.288;12.068;2023-10-19T11:54:14;13.15;;;6.68;;
58470;SDS011;44258;51.288;12.068;2023-10-19T11:56:43;14.57;;;7.25;;
58470;SDS011;44258;51.288;12.068;2023-10-19T11:59:11;16.15;;;7.20;;
58470;SDS011;44258;51.288;12.068;2023-10-19T12:01:40;16.15;;;7.57;;
58470;SDS011;44258;51.288;12.068;2023-10-19T12:04:07;15.25;;;7.47;;
58470;SDS011;44258;51.288;12.068;2023-10-19T12:06:36;16.25;;;7.85;;
58470;SDS011;44258;51.288;12.068;2023-10-19T12:09:02;14.43;;;6.95;;
58470;SDS011;44258;51.288;12.068;2023-10-19T12:11:40;14.13;;;7.22;;
58470;SDS011;44258;51.288;12.068;2023-10-19T12:14:07;17.10;;;8.23;;
58470;SDS011;44258;51.288;12.068;2023-10-19T12:16:37;15.60;;;7.82;;
58470;SDS011;44258;51.288;12.068;2023-10-19T12:19:05;14.45;;;6.90;;
58470;SDS011;44258;51.288;12.068;2023-10-19T12:21:32;17.02;;;7.90;;
58470;SDS011;44258;51.288;12.068;2023-10-19T12:24:04;18.20;;;7.45;;
58470;SDS011;44258;51.288;12.068;2023-10-19T12:26:32;16.38;;;7.60;;
58470;SDS011;44258;51.288;12.068;2023-10-19T12:28:59;16.92;;;8.27;;
58470;SDS011;44258;51.288;12.068;2023-10-19T12:31:27;15.10;;;7.13;;
58470;SDS011;44258;51.288;12.068;2023-10-19T12:33:55;15.15;;;7.43;;
58470;SDS011;44258;51.288;12.068;2023-10-19T12:36:25;16.00;;;7.45;;
58470;SDS011;44258;51.288;12.068;2023-10-19T12:38:58;17.95;;;8.15;;
58470;SDS011;44258;51.288;12.068;2023-10-19T12:41:27;17.52;;;7.43;;
58470;SDS011;44258;51.288;12.068;2023-10-19T12:43:57;17.02;;;8.27;;
58470;SDS011;44258;51.288;12.068;2023-10-19T12:46:33;14.90;;;7.07;;
58470;SDS011;44258;51.288;12.068;2023-10-19T12:49:03;15.65;;;7.60;;
58470;SDS011;44258;51.288;12.068;2023-10-19T12:51:33;16.00;;;8.40;;
58470;SDS011;44258;51.288;12.068;2023-10-19T12:54:00;16.27;;;7.43;;
58470;SDS011;44258;51.288;12.068;2023-10-19T12:56:30;15.50;;;7.28;;
58470;SDS011;44258;51.288;12.068;2023-10-19T12:58:59;16.27;;;7.47;;
58470;SDS011;44258;51.288;12.068;2023-10-19T13:01:33;15.77;;;7.38;;
58470;SDS011;44258;51.288;12.068;2023-10-19T13:04:01;15.90;;;7.63;;
58470;SDS011;44258;51.288;12.068;2023-10-19T13:06:41;18.98;;;7.97;;
58470;SDS011;44258;51.288;12.068;2023-10-19T13:09:09;17.27;;;7.40;;
58470;SDS011;44258;51.288;12.068;2023-10-19T13:11:38;17.38;;;7.65;;
58470;SDS011;44258;51.288;12.068;2023-10-19T13:14:08;18.75;;;8.48;;
58470;SDS011;44258;51.288;12.068;2023-10-19T13:16:37;17.70;;;7.85;;
58470;SDS011;44258;51.288;12.068;2023-10-19T13:19:04;18.40;;;7.88;;
58470;SDS011;44258;51.288;12.068;2023-10-19T13:21:39;17.17;;;7.75;;
58470;SDS011;44258;51.288;12.068;2023-10-19T13:24:07;20.80;;;9.00;;
58470;SDS011;44258;51.288;12.068;2023-10-19T13:26:35;20.17;;;9.18;;
58470;SDS011;44258;51.288;12.068;2023-10-19T13:29:05;19.23;;;8.70;;
58470;SDS011;44258;51.288;12.068;2023-10-19T13:31:31;18.20;;;8.32;;
58470;SDS011;44258;51.288;12.068;2023-10-19T13:34:00;19.27;;;8.40;;
58470;SDS011;44258;51.288;12.068;2023-10-19T13:36:28;16.85;;;7.88;;
58470;SDS011;44258;51.288;12.068;2023-10-19T13:38:55;20.95;;;9.07;;
58470;SDS011;44258;51.288;12.068;2023-10-19T13:41:23;20.15;;;9.40;;
58470;SDS011;44258;51.288;12.068;2023-10-19T13:43:49;18.60;;;9.18;;
58470;SDS011;44258;51.288;12.068;2023-10-19T13:46:18;23.92;;;10.43;;
58470;SDS011;44258;51.288;12.068;2023-10-19T13:48:45;17.58;;;8.13;;
58470;SDS011;44258;51.288;12.068;2023-10-19T13:51:16;20.05;;;9.25;;
58470;SDS011;44258;51.288;12.068;2023-10-19T13:53:46;16.88;;;8.35;;
58470;SDS011;44258;51.288;12.068;2023-10-19T13:56:16;19.98;;;8.75;;
58470;SDS011;44258;51.288;12.068;2023-10-19T13:58:46;16.58;;;7.72;;
58470;SDS011;44258;51.288;12.068;2023-10-19T14:01:18;19.40;;;8.70;;
58470;SDS011;44258;51.288;12.068;2023-10-19T14:03:51;17.48;;;8.25;;
58470;SDS011;44258;51.288;12.068;2023-10-19T14:06:20;21.30;;;10.07;;
58470;SDS011;44258;51.288;12.068;2023-10-19T14:08:50;19.23;;;8.88;;
58470;SDS011;44258;51.288;12.068;2023-10-19T14:11:17;21.70;;;9.90;;
58470;SDS011;44258;51.288;12.068;2023-10-19T14:13:44;18.15;;;8.25;;
58470;SDS011;44258;51.288;12.068;2023-10-19T14:16:11;18.90;;;9.32;;
58470;SDS011;44258;51.288;12.068;2023-10-19T14:18:39;19.83;;;9.23;;
58470;SDS011;44258;51.288;12.068;2023-10-19T14:21:12;22.92;;;10.13;;
58470;SDS011;44258;51.288;12.068;2023-10-19T14:23:40;21.27;;;9.52;;
58470;SDS011;44258;51.288;12.068;2023-10-19T14:26:08;19.55;;;9.77;;
58470;SDS011;44258;51.288;12.068;2023-10-19T14:28:35;19.45;;;8.93;;
58470;SDS011;44258;51.288;12.068;2023-10-19T14:31:02;19.08;;;9.15;;
58470;SDS011;44258;51.288;12.068;2023-10-19T14:33:32;21.42;;;9.60;;
58470;SDS011;44258;51.288;12.068;2023-10-19T14:36:02;19.98;;;9.52;;
58470;SDS011;44258;51.288;12.068;2023-10-19T14:38:30;17.88;;;9.00;;